createdAt,value
2022-11-14T00:01:07.873Z,65.95
2022-11-14T00:03:36.819Z,64.03
2022-11-14T00:06:05.877Z,68.70
2022-11-14T00:08:33.575Z,69.80
2022-11-14T00:11:01.063Z,66.93
2022-11-14T00:13:28.612Z,62.53
2022-11-14T00:15:56.099Z,65.85
2022-11-14T00:18:24.139Z,71.18
2022-11-14T00:20:53.615Z,69.25
2022-11-14T00:23:21.375Z,72.18
2022-11-14T00:25:49.050Z,70.03
2022-11-14T00:28:16.897Z,67.63
2022-11-14T00:30:47.394Z,68.53
2022-11-14T00:33:20.097Z,66.72
2022-11-14T00:35:53.128Z,65.03
2022-11-14T00:38:20.680Z,62.72
2022-11-14T00:40:48.196Z,66.75
2022-11-14T00:43:15.643Z,64.70
2022-11-14T00:45:43.721Z,64.80
2022-11-14T00:48:11.247Z,64.78
2022-11-14T00:50:39.013Z,60.13
2022-11-14T00:53:07.863Z,65.15
2022-11-14T00:55:35.374Z,63.17
2022-11-14T00:58:02.894Z,62.60
2022-11-14T01:00:30.473Z,62.97
2022-11-14T01:02:58.370Z,61.45
2022-11-14T01:05:26.319Z,59.70
2022-11-14T01:07:53.858Z,61.30
2022-11-14T01:10:22.728Z,62.88
2022-11-14T01:12:50.381Z,64.50
2022-11-14T01:15:17.854Z,64.82
2022-11-14T01:17:45.332Z,60.95
2022-11-14T01:20:12.830Z,70.70
2022-11-14T01:22:40.328Z,70.05
2022-11-14T01:25:08.165Z,69.03
2022-11-14T01:27:36.974Z,73.50
2022-11-14T01:30:04.812Z,64.45
2022-11-14T01:32:32.238Z,67.00
2022-11-14T01:34:59.720Z,75.72
2022-11-14T01:37:27.154Z,73.32
2022-11-14T01:39:54.643Z,75.00
2022-11-14T01:42:26.925Z,75.88
2022-11-14T01:44:56.291Z,76.47
2022-11-14T01:47:24.983Z,82.50
2022-11-14T01:49:54.591Z,84.50
2022-11-14T01:52:24.096Z,87.05
2022-11-14T01:54:53.776Z,80.00
2022-11-14T01:57:23.562Z,85.88
2022-11-14T01:59:52.682Z,82.10
2022-11-14T02:02:23.176Z,87.43
2022-11-14T02:04:52.881Z,88.60
2022-11-14T02:07:20.637Z,93.68
2022-11-14T02:09:49.688Z,91.53
2022-11-14T02:12:18.345Z,86.00
2022-11-14T02:14:47.073Z,86.43
2022-11-14T02:17:29.048Z,85.95
2022-11-14T02:20:05.297Z,87.40
2022-11-14T02:22:34.550Z,84.22
2022-11-14T02:25:02.228Z,88.90
2022-11-14T02:27:30.445Z,81.18
2022-11-14T02:30:03.640Z,74.60
2022-11-14T02:32:45.033Z,83.45
2022-11-14T02:35:18.670Z,84.50
2022-11-14T02:37:47.611Z,84.20
2022-11-14T02:40:15.173Z,80.80
2022-11-14T02:42:42.682Z,79.43
2022-11-14T02:45:10.753Z,82.80
2022-11-14T02:47:38.289Z,76.82
2022-11-14T02:50:06.201Z,77.88
2022-11-14T02:52:33.650Z,75.32
2022-11-14T02:55:02.487Z,77.88
2022-11-14T02:57:29.946Z,80.85
2022-11-14T02:59:57.360Z,77.00
2022-11-14T03:02:24.820Z,75.75
2022-11-14T03:04:52.412Z,77.47
2022-11-14T03:07:20.036Z,80.53
2022-11-14T03:09:47.607Z,78.13
2022-11-14T03:12:18.125Z,72.95
2022-11-14T03:14:45.851Z,83.40
2022-11-14T03:17:13.352Z,75.97
2022-11-14T03:19:40.942Z,71.13
2022-11-14T03:22:08.431Z,76.97
2022-11-14T03:24:35.962Z,79.32
2022-11-14T03:27:03.411Z,75.78
2022-11-14T03:29:32.219Z,79.93
2022-11-14T03:31:59.808Z,74.13
2022-11-14T03:34:27.305Z,82.15
2022-11-14T03:36:54.802Z,82.93
2022-11-14T03:39:22.331Z,77.57
2022-11-14T03:41:49.826Z,70.43
2022-11-14T03:44:17.294Z,77.95
2022-11-14T03:46:46.099Z,75.57
2022-11-14T03:49:13.525Z,73.82
2022-11-14T03:51:40.997Z,77.40
2022-11-14T03:54:08.637Z,77.50
2022-11-14T03:56:36.111Z,81.18
2022-11-14T03:59:03.612Z,81.32
2022-11-14T04:01:31.141Z,75.88
2022-11-14T04:04:01.064Z,76.13
2022-11-14T04:06:28.573Z,83.40
2022-11-14T04:08:56.640Z,77.68
2022-11-14T04:11:24.116Z,84.28
2022-11-14T04:13:51.566Z,79.20
2022-11-14T04:16:19.025Z,92.45
2022-11-14T04:18:46.522Z,88.72
2022-11-14T04:21:15.460Z,88.95
2022-11-14T04:23:42.897Z,82.63
2022-11-14T04:26:10.360Z,83.95
2022-11-14T04:28:37.852Z,84.53
2022-11-14T04:31:05.388Z,83.68
2022-11-14T04:33:32.846Z,88.82
2022-11-14T04:36:00.317Z,85.88
2022-11-14T04:38:29.564Z,98.93
2022-11-14T04:40:57.178Z,84.22
2022-11-14T04:43:24.622Z,92.82
2022-11-14T04:45:52.060Z,97.07
2022-11-14T04:48:19.556Z,90.63
2022-11-14T04:50:47.086Z,98.63
2022-11-14T04:53:14.537Z,96.80
2022-11-14T04:55:44.770Z,87.63
2022-11-14T04:58:12.234Z,90.25
2022-11-14T05:00:39.773Z,89.57
2022-11-14T05:03:07.201Z,86.07
2022-11-14T05:05:39.253Z,93.78
2022-11-14T05:08:09.139Z,95.40
2022-11-14T05:10:36.692Z,94.90
2022-11-14T05:13:05.554Z,89.30
2022-11-14T05:15:33.033Z,91.90
2022-11-14T05:18:00.529Z,100.82
2022-11-14T05:20:28.040Z,94.50
2022-11-14T05:22:56.245Z,90.82
2022-11-14T05:25:24.124Z,101.07
2022-11-14T05:27:51.619Z,97.28
2022-11-14T05:30:20.558Z,87.68
2022-11-14T05:32:48.146Z,97.95
2022-11-14T05:35:15.761Z,93.93
2022-11-14T05:37:43.280Z,101.38
2022-11-14T05:40:11.346Z,94.60
2022-11-14T05:42:38.830Z,90.70
2022-11-14T05:45:06.954Z,92.80
2022-11-14T05:47:35.834Z,89.55
2022-11-14T05:50:03.412Z,86.43
2022-11-14T05:52:31.772Z,91.95
2022-11-14T05:54:59.200Z,95.72
2022-11-14T05:57:26.666Z,97.88
2022-11-14T05:59:54.144Z,96.00
2022-11-14T06:02:21.700Z,90.30
2022-11-14T06:04:50.548Z,93.85
2022-11-14T06:07:20.340Z,97.57
2022-11-14T06:09:48.076Z,88.00
2022-11-14T06:12:15.584Z,82.43
2022-11-14T06:14:43.078Z,87.00
2022-11-14T06:17:10.529Z,85.65
2022-11-14T06:19:38.017Z,79.68
2022-11-14T06:22:06.968Z,79.82
2022-11-14T06:24:34.395Z,86.47
2022-11-14T06:27:01.871Z,93.43
2022-11-14T06:29:35.227Z,77.97
2022-11-14T06:32:03.014Z,88.40
2022-11-14T06:34:30.497Z,79.60
2022-11-14T06:36:57.916Z,90.32
2022-11-14T06:39:26.777Z,90.70
2022-11-14T06:41:54.341Z,87.25
2022-11-14T06:44:24.093Z,86.35
2022-11-14T06:46:57.598Z,92.00
2022-11-14T06:49:25.138Z,88.68
2022-11-14T06:51:52.714Z,95.18
2022-11-14T06:54:20.470Z,88.57
2022-11-14T06:56:49.319Z,89.65
2022-11-14T06:59:16.862Z,84.03
2022-11-14T07:01:44.351Z,92.20
2022-11-14T07:04:11.797Z,87.70
2022-11-14T07:06:39.283Z,89.75
2022-11-14T07:09:06.747Z,94.32
2022-11-14T07:11:36.339Z,85.55
2022-11-14T07:14:06.689Z,94.05
2022-11-14T07:16:35.254Z,92.68
2022-11-14T07:19:03.878Z,75.20
2022-11-14T07:21:32.100Z,86.38
2022-11-14T07:23:59.693Z,90.50
2022-11-14T07:26:27.194Z,80.00
2022-11-14T07:29:00.774Z,74.38
2022-11-14T07:31:31.138Z,77.18
2022-11-14T07:33:58.605Z,84.05
2022-11-14T07:36:26.082Z,81.57
2022-11-14T07:38:53.531Z,82.05
2022-11-14T07:41:21.065Z,83.88
2022-11-14T07:43:48.538Z,94.57
2022-11-14T07:46:16.850Z,87.22
2022-11-14T07:48:45.765Z,83.82
2022-11-14T07:51:15.568Z,83.03
2022-11-14T07:53:43.140Z,81.28
2022-11-14T07:56:10.918Z,83.45
2022-11-14T07:58:38.758Z,82.13
2022-11-14T08:01:06.944Z,89.57
2022-11-14T08:03:34.670Z,80.45
2022-11-14T08:06:04.379Z,77.20
2022-11-14T08:08:32.397Z,84.13
2022-11-14T08:11:00.589Z,77.88
2022-11-14T08:13:33.250Z,71.70
2022-11-14T08:16:09.163Z,76.07
2022-11-14T08:18:39.669Z,66.45
2022-11-14T08:21:08.612Z,68.65
2022-11-14T08:23:36.117Z,65.25
2022-11-14T08:26:03.635Z,68.93
2022-11-14T08:28:31.473Z,58.35
2022-11-14T08:31:02.894Z,63.78
2022-11-14T08:36:00.884Z,63.22
2022-11-14T08:38:30.009Z,65.15
2022-11-14T08:40:58.874Z,64.85
2022-11-14T08:43:26.550Z,62.35
2022-11-14T08:45:54.031Z,63.65
2022-11-14T08:48:21.481Z,64.55
2022-11-14T08:50:48.958Z,63.85
2022-11-14T08:53:16.434Z,66.57
2022-11-14T08:55:46.156Z,58.80
2022-11-14T08:58:13.625Z,62.78
2022-11-14T09:00:41.098Z,52.15
2022-11-14T09:03:09.356Z,57.65
2022-11-14T09:05:36.877Z,53.97
2022-11-14T09:08:04.435Z,55.58
2022-11-14T09:10:31.967Z,59.75
2022-11-14T09:13:01.718Z,58.63
2022-11-14T09:15:29.337Z,59.47
2022-11-14T09:17:57.208Z,55.45
2022-11-14T09:20:31.516Z,63.30
2022-11-14T09:23:00.143Z,59.67
2022-11-14T09:25:27.718Z,53.28
2022-11-14T09:27:55.214Z,52.25
2022-11-14T09:30:24.079Z,55.50
2022-11-14T09:32:51.881Z,48.97
2022-11-14T09:35:19.344Z,53.13
2022-11-14T09:37:46.790Z,47.63
2022-11-14T09:40:14.625Z,56.63
2022-11-14T09:42:52.414Z,48.67
2022-11-14T09:45:20.312Z,53.80
2022-11-14T09:47:51.461Z,51.75
2022-11-14T09:50:25.420Z,48.83
2022-11-14T09:52:54.715Z,50.80
2022-11-14T09:55:22.981Z,55.17
2022-11-14T09:57:50.516Z,52.53
2022-11-14T10:00:19.271Z,52.65
2022-11-14T10:03:05.385Z,47.92
2022-11-14T10:05:45.034Z,50.58
2022-11-14T10:08:18.730Z,49.85
2022-11-14T10:10:52.102Z,50.92
2022-11-14T10:13:27.500Z,46.35
2022-11-14T10:15:57.252Z,49.75
2022-11-14T10:18:34.862Z,47.15
2022-11-14T10:23:36.844Z,46.25
2022-11-14T10:26:10.031Z,47.40
2022-11-14T10:28:42.971Z,45.58
2022-11-14T10:31:16.417Z,44.13
2022-11-14T10:33:50.562Z,41.45
2022-11-14T10:36:22.287Z,46.38
2022-11-14T10:38:53.381Z,47.92
2022-11-14T10:44:11.674Z,45.60
2022-11-14T10:49:14.585Z,43.15
2022-11-14T10:51:44.602Z,42.60
2022-11-14T10:54:14.561Z,44.20
2022-11-14T10:56:47.334Z,42.92
2022-11-14T10:59:14.886Z,39.30
2022-11-14T11:01:43.584Z,41.75
2022-11-14T11:04:15.374Z,41.15
2022-11-14T11:06:42.934Z,38.47
2022-11-14T11:09:31.463Z,38.95
2022-11-14T11:12:01.909Z,35.97
2022-11-14T11:14:30.065Z,41.05
2022-11-14T11:17:15.914Z,40.53
2022-11-14T11:19:43.835Z,44.50
2022-11-14T11:22:25.518Z,40.38
2022-11-14T11:24:53.016Z,38.05
2022-11-14T11:27:25.863Z,36.30
2022-11-14T11:30:03.592Z,36.13
2022-11-14T11:32:31.065Z,31.90
2022-11-14T11:34:58.876Z,30.88
2022-11-14T11:39:57.478Z,29.85
2022-11-14T11:42:58.793Z,36.53
2022-11-14T11:45:17.945Z,30.75
2022-11-14T11:47:49.191Z,30.80
2022-11-14T11:50:17.868Z,31.27
2022-11-14T11:52:49.488Z,33.05
2022-11-14T11:55:18.737Z,26.98
2022-11-14T11:57:49.188Z,29.95
2022-11-14T12:00:17.655Z,25.20
2022-11-14T12:02:49.997Z,30.58
2022-11-14T12:05:19.655Z,28.02
2022-11-14T12:07:51.717Z,30.33
2022-11-14T12:10:21.823Z,28.55
2022-11-14T12:13:02.029Z,26.88
2022-11-14T12:15:32.909Z,28.05
2022-11-14T12:18:24.045Z,28.52
2022-11-14T12:21:03.661Z,30.23
2022-11-14T12:23:58.266Z,25.20
2022-11-14T12:26:36.775Z,27.08
2022-11-14T12:29:19.792Z,21.88
2022-11-14T12:31:52.508Z,24.70
2022-11-14T12:34:24.225Z,28.00
2022-11-14T12:36:52.160Z,25.35
2022-11-14T12:39:25.106Z,23.90
2022-11-14T12:42:01.326Z,22.60
2022-11-14T12:44:38.280Z,23.27
2022-11-14T12:49:40.092Z,20.27
2022-11-14T12:52:27.697Z,22.63
2022-11-14T12:54:56.473Z,21.30
2022-11-14T12:57:45.250Z,21.73
2022-11-14T13:00:13.089Z,19.65
2022-11-14T13:03:04.705Z,19.75
2022-11-14T13:05:49.636Z,20.90
2022-11-14T13:08:23.230Z,20.08
2022-11-14T13:10:52.177Z,18.95
2022-11-14T13:13:37.249Z,18.98
2022-11-14T13:16:22.466Z,18.15
2022-11-14T13:19:12.002Z,21.02
2022-11-14T13:21:48.936Z,18.85
2022-11-14T13:26:47.423Z,19.80
2022-11-14T13:31:49.777Z,17.90
2022-11-14T13:34:30.407Z,19.25
2022-11-14T13:37:00.905Z,19.85
2022-11-14T13:39:31.088Z,17.98
2022-11-14T13:42:16.296Z,19.27
2022-11-14T13:45:00.635Z,20.05
2022-11-14T13:47:35.077Z,18.65
2022-11-14T13:50:04.319Z,16.30
2022-11-14T13:52:33.069Z,19.02
2022-11-14T13:55:01.198Z,19.58
2022-11-14T13:57:34.253Z,18.80
2022-11-14T14:00:16.746Z,17.50
2022-11-14T14:03:09.218Z,20.48
2022-11-14T14:05:42.689Z,18.13
2022-11-14T14:08:15.645Z,18.52
2022-11-14T14:10:43.839Z,18.25
2022-11-14T14:13:15.383Z,17.23
2022-11-14T14:15:47.726Z,17.75
2022-11-14T14:18:22.035Z,18.23
2022-11-14T14:20:55.068Z,18.23
2022-11-14T14:23:28.389Z,18.00
2022-11-14T14:26:01.342Z,17.52
2022-11-14T14:28:34.397Z,17.33
2022-11-14T14:31:04.260Z,16.63
2022-11-14T14:33:40.155Z,16.88
2022-11-14T14:36:17.190Z,18.27
2022-11-14T14:41:14.127Z,16.90
2022-11-14T14:43:43.021Z,16.48
2022-11-14T14:46:12.002Z,18.95
2022-11-14T14:48:41.942Z,16.85
2022-11-14T14:51:13.580Z,18.30
2022-11-14T14:53:41.109Z,18.85
2022-11-14T14:56:18.411Z,18.35
2022-11-14T14:58:45.965Z,19.20
2022-11-14T15:01:16.335Z,19.52
2022-11-14T15:03:47.431Z,18.35
2022-11-14T15:06:29.740Z,18.80
2022-11-14T15:08:57.782Z,20.40
2022-11-14T15:11:31.295Z,22.10
2022-11-14T15:14:01.269Z,25.58
2022-11-14T15:16:30.440Z,21.65
2022-11-14T15:18:58.903Z,24.20
2022-11-14T15:21:28.305Z,24.00
2022-11-14T15:23:59.745Z,24.92
2022-11-14T15:26:27.389Z,23.85
2022-11-14T15:29:04.019Z,23.35
2022-11-14T15:31:33.937Z,23.92
2022-11-14T15:34:02.682Z,23.77
2022-11-14T15:36:30.180Z,25.65
2022-11-14T15:39:01.295Z,26.08
2022-11-14T15:41:29.772Z,25.08
2022-11-14T15:44:01.818Z,25.15
2022-11-14T15:46:44.151Z,24.35
2022-11-14T15:49:19.805Z,28.45
2022-11-14T15:51:48.420Z,28.35
2022-11-14T15:54:37.696Z,27.00
2022-11-14T15:57:10.541Z,28.40
2022-11-14T15:59:38.211Z,27.05
2022-11-14T16:02:11.619Z,26.85
2022-11-14T16:04:47.053Z,27.95
2022-11-14T16:07:16.180Z,30.45
2022-11-14T16:09:44.075Z,30.23
2022-11-14T16:12:11.703Z,31.98
2022-11-14T16:14:39.159Z,26.05
2022-11-14T16:17:06.694Z,28.98
2022-11-14T16:19:34.148Z,27.45
2022-11-14T16:22:03.530Z,29.65
2022-11-14T16:24:33.884Z,32.60
2022-11-14T16:27:02.188Z,29.20
2022-11-14T16:29:29.690Z,32.00
2022-11-14T16:31:57.219Z,28.45
2022-11-14T16:34:25.895Z,30.13
2022-11-14T16:36:57.969Z,29.02
2022-11-14T16:39:27.062Z,31.27
2022-11-14T16:41:54.514Z,26.55
2022-11-14T16:44:22.075Z,28.73
2022-11-14T16:46:49.632Z,31.60
2022-11-14T16:49:17.903Z,28.45
2022-11-14T16:51:48.193Z,27.08
2022-11-14T16:54:16.310Z,27.83
2022-11-14T16:56:45.157Z,32.03
2022-11-14T16:59:12.835Z,27.13
2022-11-14T17:01:40.570Z,31.90
2022-11-14T17:04:08.171Z,33.15
2022-11-14T17:06:35.682Z,38.80
2022-11-14T17:09:03.304Z,35.60
2022-11-14T17:11:30.880Z,34.22
2022-11-14T17:13:59.706Z,33.72
2022-11-14T17:16:27.177Z,30.33
2022-11-14T17:18:55.152Z,32.88
2022-11-14T17:21:22.800Z,33.47
2022-11-14T17:23:54.287Z,31.73
2022-11-14T17:26:21.738Z,27.77
2022-11-14T17:28:49.243Z,33.63
2022-11-14T17:31:18.372Z,30.50
2022-11-14T17:33:51.275Z,28.17
2022-11-14T17:36:18.877Z,29.95
2022-11-14T17:38:46.369Z,31.67
2022-11-14T17:41:14.027Z,30.20
2022-11-14T17:43:41.833Z,30.63
2022-11-14T17:46:15.665Z,30.33
2022-11-14T17:48:45.686Z,31.23
2022-11-14T17:51:14.092Z,28.40
2022-11-14T17:53:41.966Z,31.60
2022-11-14T17:56:10.793Z,33.10
2022-11-14T17:58:38.222Z,29.35
2022-11-14T18:01:09.884Z,31.55
2022-11-14T18:03:37.442Z,30.73
2022-11-14T18:06:10.291Z,30.25
2022-11-14T18:08:38.029Z,31.02
2022-11-14T18:11:06.738Z,31.35
2022-11-14T18:13:34.302Z,29.02
2022-11-14T18:16:02.574Z,29.55
2022-11-14T18:18:31.476Z,30.50
2022-11-14T18:20:59.546Z,30.58
2022-11-14T18:23:28.396Z,29.67
2022-11-14T18:25:55.880Z,29.73
2022-11-14T18:28:23.751Z,28.73
2022-11-14T18:30:55.538Z,32.45
2022-11-14T18:33:23.169Z,32.50
2022-11-14T18:35:57.125Z,28.35
2022-11-14T18:38:24.661Z,33.13
2022-11-14T18:40:57.309Z,29.90
2022-11-14T18:43:25.084Z,32.08
2022-11-14T18:45:52.517Z,30.95
2022-11-14T18:48:20.143Z,32.67
2022-11-14T18:50:48.261Z,30.63
2022-11-14T18:53:15.710Z,29.52
2022-11-14T18:55:43.159Z,28.60
2022-11-14T18:58:14.302Z,31.77
2022-11-14T19:00:41.856Z,32.00
2022-11-14T19:03:10.923Z,29.35
2022-11-14T19:05:38.439Z,32.53
2022-11-14T19:08:07.636Z,33.13
2022-11-14T19:10:35.313Z,28.75
2022-11-14T19:13:02.795Z,34.75
2022-11-14T19:15:32.112Z,33.03
2022-11-14T19:17:59.579Z,31.58
2022-11-14T19:20:27.098Z,30.98
2022-11-14T19:22:54.562Z,32.47
2022-11-14T19:25:22.050Z,31.98
2022-11-14T19:27:50.985Z,33.22
2022-11-14T19:30:18.598Z,31.48
2022-11-14T19:32:47.429Z,33.13
2022-11-14T19:35:20.317Z,31.15
2022-11-14T19:37:48.031Z,29.80
2022-11-14T19:40:15.571Z,30.70
2022-11-14T19:42:43.083Z,30.98
2022-11-14T19:45:11.084Z,30.88
2022-11-14T19:47:38.566Z,30.15
2022-11-14T19:50:07.963Z,31.50
2022-11-14T19:52:35.450Z,31.85
2022-11-14T19:55:02.989Z,29.95
2022-11-14T19:57:31.187Z,33.45
2022-11-14T19:59:58.632Z,33.13
2022-11-14T20:02:28.502Z,33.30
2022-11-14T20:04:55.986Z,35.72
2022-11-14T20:07:25.009Z,35.35
2022-11-14T20:09:52.623Z,34.13
2022-11-14T20:12:20.130Z,34.13
2022-11-14T20:14:47.655Z,34.33
2022-11-14T20:17:15.169Z,32.10
2022-11-14T20:19:42.788Z,37.42
2022-11-14T20:22:11.070Z,31.60
2022-11-14T20:24:39.991Z,32.72
2022-11-14T20:27:07.461Z,34.97
2022-11-14T20:29:34.979Z,37.17
2022-11-14T20:32:03.119Z,39.40
2022-11-14T20:34:31.109Z,33.20
2022-11-14T20:37:14.117Z,30.23
2022-11-14T20:39:43.046Z,30.92
2022-11-14T20:42:10.562Z,33.45
2022-11-14T20:44:38.136Z,30.90
2022-11-14T20:47:10.660Z,34.72
2022-11-14T20:49:38.661Z,33.70
2022-11-14T20:52:06.311Z,38.53
2022-11-14T20:54:33.877Z,34.35
2022-11-14T20:57:02.737Z,33.35
2022-11-14T20:59:30.244Z,33.97
2022-11-14T21:01:57.752Z,33.15
2022-11-14T21:04:25.321Z,33.10
2022-11-14T21:06:52.821Z,32.80
2022-11-14T21:09:20.541Z,37.05
2022-11-14T21:11:47.970Z,35.85
2022-11-14T21:14:16.913Z,32.70
2022-11-14T21:16:44.465Z,32.60
2022-11-14T21:19:11.894Z,34.10
2022-11-14T21:21:39.452Z,36.45
2022-11-14T21:24:07.365Z,39.53
2022-11-14T21:26:35.378Z,35.63
2022-11-14T21:29:03.706Z,33.00
2022-11-14T21:31:33.418Z,28.92
2022-11-14T21:34:02.077Z,34.35
2022-11-14T21:36:46.579Z,33.83
2022-11-14T21:39:16.450Z,43.42
2022-11-14T21:41:44.839Z,35.75
2022-11-14T21:44:12.992Z,35.42
2022-11-14T21:46:42.582Z,38.85
2022-11-14T21:49:10.591Z,36.58
2022-11-14T21:51:38.094Z,33.70
2022-11-14T21:54:06.395Z,37.70
2022-11-14T21:56:35.337Z,37.72
2022-11-14T21:59:15.822Z,36.72
2022-11-14T22:02:15.553Z,35.88
2022-11-14T22:04:43.007Z,33.05
2022-11-14T22:07:10.533Z,34.65
2022-11-14T22:09:43.990Z,36.42
2022-11-14T22:12:12.505Z,38.38
2022-11-14T22:14:39.974Z,35.55
2022-11-14T22:17:08.782Z,35.75
2022-11-14T22:19:36.292Z,36.47
2022-11-14T22:22:03.761Z,35.83
2022-11-14T22:24:31.218Z,34.03
2022-11-14T22:26:58.666Z,36.33
2022-11-14T22:29:26.127Z,36.72
2022-11-14T22:31:55.395Z,35.35
2022-11-14T22:34:24.401Z,35.10
2022-11-14T22:36:51.886Z,34.95
2022-11-14T22:39:19.369Z,35.40
2022-11-14T22:41:46.880Z,34.65
2022-11-14T22:44:14.343Z,35.42
2022-11-14T22:46:41.821Z,32.03
2022-11-14T22:49:09.333Z,35.03
2022-11-14T22:51:38.121Z,37.15
2022-11-14T22:54:05.673Z,38.72
2022-11-14T22:56:33.125Z,36.17
2022-11-14T22:59:00.973Z,39.35
2022-11-14T23:01:29.724Z,35.20
2022-11-14T23:03:58.088Z,40.28
2022-11-14T23:06:25.901Z,41.22
2022-11-14T23:08:55.196Z,35.97
2022-11-14T23:11:23.706Z,35.47
2022-11-14T23:13:52.358Z,37.15
2022-11-14T23:16:20.606Z,37.50
2022-11-14T23:18:48.314Z,38.65
2022-11-14T23:21:16.749Z,38.60
2022-11-14T23:23:44.360Z,37.35
2022-11-14T23:26:13.957Z,39.50
2022-11-14T23:28:41.594Z,37.47
2022-11-14T23:31:09.542Z,38.75
2022-11-14T23:33:37.021Z,40.85
2022-11-14T23:36:04.917Z,39.10
2022-11-14T23:38:32.407Z,39.90
2022-11-14T23:41:00.488Z,38.13
2022-11-14T23:43:30.324Z,41.80
2022-11-14T23:45:58.569Z,36.50
2022-11-14T23:48:26.354Z,39.22
2022-11-14T23:50:54.923Z,42.53
2022-11-14T23:53:22.524Z,39.35
2022-11-14T23:55:53.430Z,35.35
2022-11-14T23:58:21.014Z,41.63
